sensor_id;sensor_type;location;lat;lon;timestamp;temperature;humidity
59618;DHT22;45437;51.458;-2.568;2022-09-03T00:00:57;20.90;68.60
59618;DHT22;45437;51.458;-2.568;2022-09-03T00:02:06;20.90;68.60
59618;DHT22;45437;51.458;-2.568;2022-09-03T00:04:52;20.90;68.40
59618;DHT22;45437;51.458;-2.568;2022-09-03T00:06:10;20.90;68.60
59618;DHT22;45437;51.458;-2.568;2022-09-03T00:07:19;20.90;68.50
59618;DHT22;45437;51.458;-2.568;2022-09-03T00:08:31;20.80;68.50
59618;DHT22;45437;51.458;-2.568;2022-09-03T00:09:42;20.90;68.60
59618;DHT22;45437;51.458;-2.568;2022-09-03T00:11:53;20.90;68.60
59618;DHT22;45437;51.458;-2.568;2022-09-03T00:13:01;20.80;68.60
59618;DHT22;45437;51.458;-2.568;2022-09-03T00:14:08;20.80;68.70
59618;DHT22;45437;51.458;-2.568;2022-09-03T00:15:14;20.80;68.80
59618;DHT22;45437;51.458;-2.568;2022-09-03T00:16:20;20.80;69.00
59618;DHT22;45437;51.458;-2.568;2022-09-03T00:17:26;20.80;69.10
59618;DHT22;45437;51.458;-2.568;2022-09-03T00:18:31;20.80;69.20
59618;DHT22;45437;51.458;-2.568;2022-09-03T00:19:40;20.70;69.20
59618;DHT22;45437;51.458;-2.568;2022-09-03T00:20:48;20.70;69.20
59618;DHT22;45437;51.458;-2.568;2022-09-03T00:21:57;20.70;69.20
59618;DHT22;45437;51.458;-2.568;2022-09-03T00:24:58;20.70;69.30
59618;DHT22;45437;51.458;-2.568;2022-09-03T00:27:23;20.70;69.10
59618;DHT22;45437;51.458;-2.568;2022-09-03T00:28:35;20.70;69.10
59618;DHT22;45437;51.458;-2.568;2022-09-03T00:29:42;20.70;69.10
59618;DHT22;45437;51.458;-2.568;2022-09-03T00:30:49;20.70;69.00
59618;DHT22;45437;51.458;-2.568;2022-09-03T00:31:57;20.70;69.10
59618;DHT22;45437;51.458;-2.568;2022-09-03T00:33:10;20.70;69.20
59618;DHT22;45437;51.458;-2.568;2022-09-03T00:34:22;20.60;69.30
59618;DHT22;45437;51.458;-2.568;2022-09-03T00:35:29;20.60;69.40
59618;DHT22;45437;51.458;-2.568;2022-09-03T00:36:40;20.60;69.30
59618;DHT22;45437;51.458;-2.568;2022-09-03T00:37:43;20.70;69.30
59618;DHT22;45437;51.458;-2.568;2022-09-03T00:38:44;20.70;69.30
59618;DHT22;45437;51.458;-2.568;2022-09-03T00:39:45;20.70;69.20
59618;DHT22;45437;51.458;-2.568;2022-09-03T00:41:04;20.70;69.20
59618;DHT22;45437;51.458;-2.568;2022-09-03T00:45:59;20.70;69.20
59618;DHT22;45437;51.458;-2.568;2022-09-03T00:50:42;20.60;69.30
59618;DHT22;45437;51.458;-2.568;2022-09-03T00:52:06;20.60;69.20
59618;DHT22;45437;51.458;-2.568;2022-09-03T00:53:30;20.60;69.30
59618;DHT22;45437;51.458;-2.568;2022-09-03T00:57:40;20.60;69.40
59618;DHT22;45437;51.458;-2.568;2022-09-03T01:00:14;20.60;69.30
59618;DHT22;45437;51.458;-2.568;2022-09-03T01:01:20;20.60;69.30
59618;DHT22;45437;51.458;-2.568;2022-09-03T01:09:23;20.60;69.60
59618;DHT22;45437;51.458;-2.568;2022-09-03T01:11:47;20.50;69.50
59618;DHT22;45437;51.458;-2.568;2022-09-03T01:13:06;20.50;69.80
59618;DHT22;45437;51.458;-2.568;2022-09-03T01:14:39;20.50;69.90
59618;DHT22;45437;51.458;-2.568;2022-09-03T01:16:02;20.50;70.00
59618;DHT22;45437;51.458;-2.568;2022-09-03T01:18:38;20.50;70.10
59618;DHT22;45437;51.458;-2.568;2022-09-03T01:20:02;20.50;70.20
59618;DHT22;45437;51.458;-2.568;2022-09-03T01:21:34;20.50;70.00
59618;DHT22;45437;51.458;-2.568;2022-09-03T01:24:22;20.50;69.90
59618;DHT22;45437;51.458;-2.568;2022-09-03T01:25:51;20.50;69.90
59618;DHT22;45437;51.458;-2.568;2022-09-03T01:28:47;20.50;69.90
59618;DHT22;45437;51.458;-2.568;2022-09-03T01:30:05;20.40;70.10
59618;DHT22;45437;51.458;-2.568;2022-09-03T01:31:37;20.40;70.20
59618;DHT22;45437;51.458;-2.568;2022-09-03T01:38:06;20.40;70.10
59618;DHT22;45437;51.458;-2.568;2022-09-03T01:39:16;20.40;70.10
59618;DHT22;45437;51.458;-2.568;2022-09-03T01:46:42;20.40;70.50
59618;DHT22;45437;51.458;-2.568;2022-09-03T01:48:18;20.40;70.50
59618;DHT22;45437;51.458;-2.568;2022-09-03T01:49:33;20.40;70.50
59618;DHT22;45437;51.458;-2.568;2022-09-03T01:50:52;20.40;70.40
59618;DHT22;45437;51.458;-2.568;2022-09-03T01:52:11;20.40;70.50
59618;DHT22;45437;51.458;-2.568;2022-09-03T01:54:30;20.30;70.80
59618;DHT22;45437;51.458;-2.568;2022-09-03T01:59:36;20.30;70.60
59618;DHT22;45437;51.458;-2.568;2022-09-03T02:00:42;20.30;70.50
59618;DHT22;45437;51.458;-2.568;2022-09-03T02:02:04;20.30;70.40
59618;DHT22;45437;51.458;-2.568;2022-09-03T02:03:09;20.30;70.40
59618;DHT22;45437;51.458;-2.568;2022-09-03T02:04:19;20.30;70.50
59618;DHT22;45437;51.458;-2.568;2022-09-03T02:05:27;20.20;70.70
59618;DHT22;45437;51.458;-2.568;2022-09-03T02:06:29;20.20;70.80
59618;DHT22;45437;51.458;-2.568;2022-09-03T02:07:37;20.20;70.80
59618;DHT22;45437;51.458;-2.568;2022-09-03T02:08:39;20.20;70.80
59618;DHT22;45437;51.458;-2.568;2022-09-03T02:09:41;20.20;70.80
59618;DHT22;45437;51.458;-2.568;2022-09-03T02:10:50;20.20;70.80
59618;DHT22;45437;51.458;-2.568;2022-09-03T02:11:57;20.20;70.90
59618;DHT22;45437;51.458;-2.568;2022-09-03T02:17:20;20.20;70.90
59618;DHT22;45437;51.458;-2.568;2022-09-03T02:18:34;20.20;71.00
59618;DHT22;45437;51.458;-2.568;2022-09-03T02:19:38;20.10;71.00
59618;DHT22;45437;51.458;-2.568;2022-09-03T02:20:39;20.10;71.20
59618;DHT22;45437;51.458;-2.568;2022-09-03T02:21:46;20.10;71.10
59618;DHT22;45437;51.458;-2.568;2022-09-03T02:22:51;20.10;71.00
59618;DHT22;45437;51.458;-2.568;2022-09-03T02:23:53;20.20;71.00
59618;DHT22;45437;51.458;-2.568;2022-09-03T02:24:54;20.10;71.00
59618;DHT22;45437;51.458;-2.568;2022-09-03T02:25:57;20.20;71.20
59618;DHT22;45437;51.458;-2.568;2022-09-03T02:26:59;20.10;71.10
59618;DHT22;45437;51.458;-2.568;2022-09-03T02:28:01;20.20;71.00
59618;DHT22;45437;51.458;-2.568;2022-09-03T02:29:03;20.20;71.00
59618;DHT22;45437;51.458;-2.568;2022-09-03T02:30:05;20.20;70.90
59618;DHT22;45437;51.458;-2.568;2022-09-03T02:31:06;20.10;70.80
59618;DHT22;45437;51.458;-2.568;2022-09-03T02:32:07;20.10;70.90
59618;DHT22;45437;51.458;-2.568;2022-09-03T02:33:08;20.20;71.00
59618;DHT22;45437;51.458;-2.568;2022-09-03T02:34:09;20.10;70.90
59618;DHT22;45437;51.458;-2.568;2022-09-03T02:35:10;20.10;71.20
59618;DHT22;45437;51.458;-2.568;2022-09-03T02:36:15;20.00;71.40
59618;DHT22;45437;51.458;-2.568;2022-09-03T02:37:17;20.00;71.50
59618;DHT22;45437;51.458;-2.568;2022-09-03T02:38:23;20.00;71.60
59618;DHT22;45437;51.458;-2.568;2022-09-03T02:39:27;19.90;71.70
59618;DHT22;45437;51.458;-2.568;2022-09-03T02:40:28;20.00;71.60
59618;DHT22;45437;51.458;-2.568;2022-09-03T02:41:29;20.00;71.50
59618;DHT22;45437;51.458;-2.568;2022-09-03T02:42:31;20.00;71.70
59618;DHT22;45437;51.458;-2.568;2022-09-03T02:43:47;19.90;71.70
59618;DHT22;45437;51.458;-2.568;2022-09-03T02:44:56;19.90;71.70
59618;DHT22;45437;51.458;-2.568;2022-09-03T02:46:03;20.00;71.80
59618;DHT22;45437;51.458;-2.568;2022-09-03T02:47:07;20.00;71.80
59618;DHT22;45437;51.458;-2.568;2022-09-03T02:48:09;19.90;71.80
59618;DHT22;45437;51.458;-2.568;2022-09-03T02:49:10;19.90;72.00
59618;DHT22;45437;51.458;-2.568;2022-09-03T02:50:11;19.90;72.10
59618;DHT22;45437;51.458;-2.568;2022-09-03T02:51:12;19.90;72.20
59618;DHT22;45437;51.458;-2.568;2022-09-03T02:52:13;19.90;71.80
59618;DHT22;45437;51.458;-2.568;2022-09-03T02:53:14;19.90;71.90
59618;DHT22;45437;51.458;-2.568;2022-09-03T02:54:15;19.90;71.90
59618;DHT22;45437;51.458;-2.568;2022-09-03T02:55:17;19.90;71.80
59618;DHT22;45437;51.458;-2.568;2022-09-03T02:56:19;19.90;71.80
59618;DHT22;45437;51.458;-2.568;2022-09-03T02:57:19;19.90;71.70
59618;DHT22;45437;51.458;-2.568;2022-09-03T02:58:20;19.90;71.90
59618;DHT22;45437;51.458;-2.568;2022-09-03T02:59:21;19.90;72.20
59618;DHT22;45437;51.458;-2.568;2022-09-03T03:00:22;19.80;72.30
59618;DHT22;45437;51.458;-2.568;2022-09-03T03:01:23;19.80;72.40
59618;DHT22;45437;51.458;-2.568;2022-09-03T03:02:24;19.90;72.20
59618;DHT22;45437;51.458;-2.568;2022-09-03T03:03:25;19.80;72.10
59618;DHT22;45437;51.458;-2.568;2022-09-03T03:04:26;19.90;72.10
59618;DHT22;45437;51.458;-2.568;2022-09-03T03:05:40;19.90;72.10
59618;DHT22;45437;51.458;-2.568;2022-09-03T03:06:43;19.90;72.00
59618;DHT22;45437;51.458;-2.568;2022-09-03T03:07:43;19.80;72.30
59618;DHT22;45437;51.458;-2.568;2022-09-03T03:08:44;19.80;72.50
59618;DHT22;45437;51.458;-2.568;2022-09-03T03:09:46;19.70;72.60
59618;DHT22;45437;51.458;-2.568;2022-09-03T03:10:47;19.70;72.70
59618;DHT22;45437;51.458;-2.568;2022-09-03T03:11:48;19.70;72.90
59618;DHT22;45437;51.458;-2.568;2022-09-03T03:12:50;19.60;73.00
59618;DHT22;45437;51.458;-2.568;2022-09-03T03:13:51;19.60;73.00
59618;DHT22;45437;51.458;-2.568;2022-09-03T03:14:52;19.60;73.10
59618;DHT22;45437;51.458;-2.568;2022-09-03T03:15:57;19.60;73.00
59618;DHT22;45437;51.458;-2.568;2022-09-03T03:16:58;19.60;73.10
59618;DHT22;45437;51.458;-2.568;2022-09-03T03:17:59;19.60;73.10
59618;DHT22;45437;51.458;-2.568;2022-09-03T03:18:59;19.60;72.90
59618;DHT22;45437;51.458;-2.568;2022-09-03T03:20:00;19.60;72.70
59618;DHT22;45437;51.458;-2.568;2022-09-03T03:21:13;19.60;72.80
59618;DHT22;45437;51.458;-2.568;2022-09-03T03:22:13;19.60;72.80
59618;DHT22;45437;51.458;-2.568;2022-09-03T03:23:14;19.60;73.00
59618;DHT22;45437;51.458;-2.568;2022-09-03T03:24:15;19.60;72.90
59618;DHT22;45437;51.458;-2.568;2022-09-03T03:25:16;19.60;72.90
59618;DHT22;45437;51.458;-2.568;2022-09-03T03:26:18;19.60;73.00
59618;DHT22;45437;51.458;-2.568;2022-09-03T03:27:19;19.50;73.10
59618;DHT22;45437;51.458;-2.568;2022-09-03T03:28:19;19.50;73.40
59618;DHT22;45437;51.458;-2.568;2022-09-03T03:29:20;19.50;73.50
59618;DHT22;45437;51.458;-2.568;2022-09-03T03:30:21;19.50;73.60
59618;DHT22;45437;51.458;-2.568;2022-09-03T03:31:23;19.50;73.70
59618;DHT22;45437;51.458;-2.568;2022-09-03T03:32:23;19.50;73.70
59618;DHT22;45437;51.458;-2.568;2022-09-03T03:33:24;19.50;73.80
59618;DHT22;45437;51.458;-2.568;2022-09-03T03:34:25;19.40;74.00
59618;DHT22;45437;51.458;-2.568;2022-09-03T03:35:25;19.40;74.10
59618;DHT22;45437;51.458;-2.568;2022-09-03T03:36:28;19.50;74.00
59618;DHT22;45437;51.458;-2.568;2022-09-03T03:37:30;19.50;74.10
59618;DHT22;45437;51.458;-2.568;2022-09-03T03:38:31;19.50;74.20
59618;DHT22;45437;51.458;-2.568;2022-09-03T03:39:32;19.50;74.10
59618;DHT22;45437;51.458;-2.568;2022-09-03T03:40:33;19.50;74.20
59618;DHT22;45437;51.458;-2.568;2022-09-03T03:41:35;19.50;74.40
59618;DHT22;45437;51.458;-2.568;2022-09-03T03:42:36;19.50;74.50
59618;DHT22;45437;51.458;-2.568;2022-09-03T03:43:37;19.50;74.40
59618;DHT22;45437;51.458;-2.568;2022-09-03T03:44:37;19.50;74.40
59618;DHT22;45437;51.458;-2.568;2022-09-03T03:45:38;19.50;74.40
59618;DHT22;45437;51.458;-2.568;2022-09-03T03:46:40;19.50;74.30
59618;DHT22;45437;51.458;-2.568;2022-09-03T03:47:41;19.50;74.50
59618;DHT22;45437;51.458;-2.568;2022-09-03T03:48:41;19.50;74.50
59618;DHT22;45437;51.458;-2.568;2022-09-03T03:49:43;19.50;74.60
59618;DHT22;45437;51.458;-2.568;2022-09-03T03:50:44;19.50;75.10
59618;DHT22;45437;51.458;-2.568;2022-09-03T03:51:45;19.40;75.10
59618;DHT22;45437;51.458;-2.568;2022-09-03T03:52:46;19.50;75.20
59618;DHT22;45437;51.458;-2.568;2022-09-03T03:53:47;19.50;75.20
59618;DHT22;45437;51.458;-2.568;2022-09-03T03:54:48;19.50;75.30
59618;DHT22;45437;51.458;-2.568;2022-09-03T03:55:56;19.50;75.50
59618;DHT22;45437;51.458;-2.568;2022-09-03T03:56:58;19.50;75.40
59618;DHT22;45437;51.458;-2.568;2022-09-03T03:57:58;19.50;75.60
59618;DHT22;45437;51.458;-2.568;2022-09-03T03:58:59;19.40;75.70
59618;DHT22;45437;51.458;-2.568;2022-09-03T04:00:00;19.40;75.70
59618;DHT22;45437;51.458;-2.568;2022-09-03T04:01:05;19.40;75.90
59618;DHT22;45437;51.458;-2.568;2022-09-03T04:02:06;19.40;76.00
59618;DHT22;45437;51.458;-2.568;2022-09-03T04:03:07;19.40;76.00
59618;DHT22;45437;51.458;-2.568;2022-09-03T04:04:08;19.50;76.00
59618;DHT22;45437;51.458;-2.568;2022-09-03T04:05:09;19.50;75.80
59618;DHT22;45437;51.458;-2.568;2022-09-03T04:06:11;19.50;75.60
59618;DHT22;45437;51.458;-2.568;2022-09-03T04:07:12;19.50;75.40
59618;DHT22;45437;51.458;-2.568;2022-09-03T04:08:13;19.50;75.30
59618;DHT22;45437;51.458;-2.568;2022-09-03T04:09:14;19.60;75.30
59618;DHT22;45437;51.458;-2.568;2022-09-03T04:10:14;19.60;75.30
59618;DHT22;45437;51.458;-2.568;2022-09-03T04:11:18;19.60;75.30
59618;DHT22;45437;51.458;-2.568;2022-09-03T04:12:19;19.60;75.50
59618;DHT22;45437;51.458;-2.568;2022-09-03T04:13:20;19.60;75.50
59618;DHT22;45437;51.458;-2.568;2022-09-03T04:14:20;19.60;75.40
59618;DHT22;45437;51.458;-2.568;2022-09-03T04:15:21;19.50;75.80
59618;DHT22;45437;51.458;-2.568;2022-09-03T04:16:24;19.50;75.90
59618;DHT22;45437;51.458;-2.568;2022-09-03T04:17:26;19.50;76.10
59618;DHT22;45437;51.458;-2.568;2022-09-03T04:18:27;19.50;76.10
59618;DHT22;45437;51.458;-2.568;2022-09-03T04:19:28;19.50;75.90
59618;DHT22;45437;51.458;-2.568;2022-09-03T04:20:29;19.60;75.80
59618;DHT22;45437;51.458;-2.568;2022-09-03T04:21:30;19.60;75.80
59618;DHT22;45437;51.458;-2.568;2022-09-03T04:22:31;19.50;76.10
59618;DHT22;45437;51.458;-2.568;2022-09-03T04:23:37;19.50;76.40
59618;DHT22;45437;51.458;-2.568;2022-09-03T04:24:38;19.50;76.50
59618;DHT22;45437;51.458;-2.568;2022-09-03T04:25:39;19.50;76.60
59618;DHT22;45437;51.458;-2.568;2022-09-03T04:26:41;19.50;76.50
59618;DHT22;45437;51.458;-2.568;2022-09-03T04:27:41;19.50;76.80
59618;DHT22;45437;51.458;-2.568;2022-09-03T04:28:43;19.50;77.00
59618;DHT22;45437;51.458;-2.568;2022-09-03T04:29:45;19.50;77.00
59618;DHT22;45437;51.458;-2.568;2022-09-03T04:30:45;19.50;77.00
59618;DHT22;45437;51.458;-2.568;2022-09-03T04:31:46;19.50;77.00
59618;DHT22;45437;51.458;-2.568;2022-09-03T04:33:06;19.50;76.90
59618;DHT22;45437;51.458;-2.568;2022-09-03T04:34:06;19.50;76.70
59618;DHT22;45437;51.458;-2.568;2022-09-03T04:35:07;19.50;76.60
59618;DHT22;45437;51.458;-2.568;2022-09-03T04:36:13;19.50;76.40
59618;DHT22;45437;51.458;-2.568;2022-09-03T04:37:16;19.50;76.30
59618;DHT22;45437;51.458;-2.568;2022-09-03T04:38:19;19.50;76.40
59618;DHT22;45437;51.458;-2.568;2022-09-03T04:39:19;19.50;76.50
59618;DHT22;45437;51.458;-2.568;2022-09-03T04:40:20;19.50;76.70
59618;DHT22;45437;51.458;-2.568;2022-09-03T04:41:23;19.50;76.90
59618;DHT22;45437;51.458;-2.568;2022-09-03T04:42:25;19.40;77.10
59618;DHT22;45437;51.458;-2.568;2022-09-03T04:43:27;19.40;77.20
59618;DHT22;45437;51.458;-2.568;2022-09-03T04:44:28;19.40;77.30
59618;DHT22;45437;51.458;-2.568;2022-09-03T04:45:29;19.40;77.50
59618;DHT22;45437;51.458;-2.568;2022-09-03T04:46:30;19.40;77.30
59618;DHT22;45437;51.458;-2.568;2022-09-03T04:47:32;19.40;77.20
59618;DHT22;45437;51.458;-2.568;2022-09-03T04:48:35;19.40;77.10
59618;DHT22;45437;51.458;-2.568;2022-09-03T04:49:36;19.40;77.30
59618;DHT22;45437;51.458;-2.568;2022-09-03T04:50:36;19.40;77.40
59618;DHT22;45437;51.458;-2.568;2022-09-03T04:51:37;19.40;77.40
59618;DHT22;45437;51.458;-2.568;2022-09-03T04:52:38;19.40;77.20
59618;DHT22;45437;51.458;-2.568;2022-09-03T04:53:41;19.40;77.10
59618;DHT22;45437;51.458;-2.568;2022-09-03T04:54:42;19.40;76.90
59618;DHT22;45437;51.458;-2.568;2022-09-03T04:55:43;19.40;77.10
59618;DHT22;45437;51.458;-2.568;2022-09-03T04:56:44;19.40;77.10
59618;DHT22;45437;51.458;-2.568;2022-09-03T04:57:45;19.40;77.10
59618;DHT22;45437;51.458;-2.568;2022-09-03T04:58:46;19.40;77.10
59618;DHT22;45437;51.458;-2.568;2022-09-03T04:59:47;19.40;77.30
59618;DHT22;45437;51.458;-2.568;2022-09-03T05:00:47;19.40;77.30
59618;DHT22;45437;51.458;-2.568;2022-09-03T05:01:48;19.40;77.00
59618;DHT22;45437;51.458;-2.568;2022-09-03T05:02:49;19.50;77.00
59618;DHT22;45437;51.458;-2.568;2022-09-03T05:03:51;19.40;77.00
59618;DHT22;45437;51.458;-2.568;2022-09-03T05:04:51;19.40;77.00
59618;DHT22;45437;51.458;-2.568;2022-09-03T05:05:54;19.50;76.90
59618;DHT22;45437;51.458;-2.568;2022-09-03T05:06:55;19.50;77.00
59618;DHT22;45437;51.458;-2.568;2022-09-03T05:08:02;19.50;76.70
59618;DHT22;45437;51.458;-2.568;2022-09-03T05:09:04;19.50;76.50
59618;DHT22;45437;51.458;-2.568;2022-09-03T05:10:06;19.50;76.50
59618;DHT22;45437;51.458;-2.568;2022-09-03T05:11:08;19.50;76.80
59618;DHT22;45437;51.458;-2.568;2022-09-03T05:12:08;19.40;76.80
59618;DHT22;45437;51.458;-2.568;2022-09-03T05:13:10;19.50;76.90
59618;DHT22;45437;51.458;-2.568;2022-09-03T05:14:11;19.50;76.80
59618;DHT22;45437;51.458;-2.568;2022-09-03T05:15:12;19.50;76.80
59618;DHT22;45437;51.458;-2.568;2022-09-03T05:16:13;19.40;76.80
59618;DHT22;45437;51.458;-2.568;2022-09-03T05:17:14;19.40;76.80
59618;DHT22;45437;51.458;-2.568;2022-09-03T05:18:15;19.50;76.70
59618;DHT22;45437;51.458;-2.568;2022-09-03T05:19:16;19.50;76.60
59618;DHT22;45437;51.458;-2.568;2022-09-03T05:20:17;19.50;76.50
59618;DHT22;45437;51.458;-2.568;2022-09-03T05:21:17;19.50;76.40
59618;DHT22;45437;51.458;-2.568;2022-09-03T05:22:21;19.50;76.40
59618;DHT22;45437;51.458;-2.568;2022-09-03T05:23:21;19.50;76.70
59618;DHT22;45437;51.458;-2.568;2022-09-03T05:24:22;19.40;76.80
59618;DHT22;45437;51.458;-2.568;2022-09-03T05:25:24;19.50;76.80
59618;DHT22;45437;51.458;-2.568;2022-09-03T05:26:27;19.50;76.80
59618;DHT22;45437;51.458;-2.568;2022-09-03T05:27:28;19.40;77.20
59618;DHT22;45437;51.458;-2.568;2022-09-03T05:28:30;19.40;77.40
59618;DHT22;45437;51.458;-2.568;2022-09-03T05:29:30;19.40;77.30
59618;DHT22;45437;51.458;-2.568;2022-09-03T05:30:31;19.30;77.40
59618;DHT22;45437;51.458;-2.568;2022-09-03T05:31:34;19.30;77.30
59618;DHT22;45437;51.458;-2.568;2022-09-03T05:32:35;19.40;77.30
59618;DHT22;45437;51.458;-2.568;2022-09-03T05:33:41;19.40;77.10
59618;DHT22;45437;51.458;-2.568;2022-09-03T05:34:42;19.40;77.10
59618;DHT22;45437;51.458;-2.568;2022-09-03T05:35:43;19.40;77.10
59618;DHT22;45437;51.458;-2.568;2022-09-03T05:36:44;19.50;76.90
59618;DHT22;45437;51.458;-2.568;2022-09-03T05:37:46;19.50;76.80
59618;DHT22;45437;51.458;-2.568;2022-09-03T05:38:48;19.50;76.90
59618;DHT22;45437;51.458;-2.568;2022-09-03T05:39:49;19.50;76.90
59618;DHT22;45437;51.458;-2.568;2022-09-03T05:40:50;19.50;76.90
59618;DHT22;45437;51.458;-2.568;2022-09-03T05:41:51;19.50;76.90
59618;DHT22;45437;51.458;-2.568;2022-09-03T05:42:55;19.40;77.10
59618;DHT22;45437;51.458;-2.568;2022-09-03T05:43:58;19.50;77.00
59618;DHT22;45437;51.458;-2.568;2022-09-03T05:44:59;19.50;77.00
59618;DHT22;45437;51.458;-2.568;2022-09-03T05:46:02;19.50;76.90
59618;DHT22;45437;51.458;-2.568;2022-09-03T05:47:03;19.50;76.80
59618;DHT22;45437;51.458;-2.568;2022-09-03T05:48:03;19.50;76.80
59618;DHT22;45437;51.458;-2.568;2022-09-03T05:49:05;19.50;76.80
59618;DHT22;45437;51.458;-2.568;2022-09-03T05:50:06;19.50;76.90
59618;DHT22;45437;51.458;-2.568;2022-09-03T05:51:13;19.40;77.10
59618;DHT22;45437;51.458;-2.568;2022-09-03T05:52:17;19.50;77.00
59618;DHT22;45437;51.458;-2.568;2022-09-03T05:53:21;19.40;77.30
59618;DHT22;45437;51.458;-2.568;2022-09-03T05:54:22;19.40;77.10
59618;DHT22;45437;51.458;-2.568;2022-09-03T05:55:23;19.40;77.00
59618;DHT22;45437;51.458;-2.568;2022-09-03T05:56:25;19.50;77.00
59618;DHT22;45437;51.458;-2.568;2022-09-03T05:57:26;19.50;77.10
59618;DHT22;45437;51.458;-2.568;2022-09-03T05:58:30;19.50;77.10
59618;DHT22;45437;51.458;-2.568;2022-09-03T05:59:31;19.50;77.20
59618;DHT22;45437;51.458;-2.568;2022-09-03T06:00:32;19.50;77.20
59618;DHT22;45437;51.458;-2.568;2022-09-03T06:01:35;19.50;77.00
59618;DHT22;45437;51.458;-2.568;2022-09-03T06:02:36;19.50;77.20
59618;DHT22;45437;51.458;-2.568;2022-09-03T06:03:36;19.50;77.30
59618;DHT22;45437;51.458;-2.568;2022-09-03T06:04:37;19.40;77.20
59618;DHT22;45437;51.458;-2.568;2022-09-03T06:05:38;19.50;77.20
59618;DHT22;45437;51.458;-2.568;2022-09-03T06:06:43;19.50;77.10
59618;DHT22;45437;51.458;-2.568;2022-09-03T06:07:44;19.50;77.00
59618;DHT22;45437;51.458;-2.568;2022-09-03T06:08:48;19.50;76.90
59618;DHT22;45437;51.458;-2.568;2022-09-03T06:09:50;19.50;77.00
59618;DHT22;45437;51.458;-2.568;2022-09-03T06:10:57;19.50;77.00
59618;DHT22;45437;51.458;-2.568;2022-09-03T06:11:58;19.50;77.10
59618;DHT22;45437;51.458;-2.568;2022-09-03T06:12:59;19.50;77.00
59618;DHT22;45437;51.458;-2.568;2022-09-03T06:14:05;19.50;77.00
59618;DHT22;45437;51.458;-2.568;2022-09-03T06:15:07;19.50;77.20
59618;DHT22;45437;51.458;-2.568;2022-09-03T06:16:08;19.50;77.20
59618;DHT22;45437;51.458;-2.568;2022-09-03T06:17:09;19.50;77.10
59618;DHT22;45437;51.458;-2.568;2022-09-03T06:18:11;19.50;77.10
59618;DHT22;45437;51.458;-2.568;2022-09-03T06:19:12;19.50;76.90
59618;DHT22;45437;51.458;-2.568;2022-09-03T06:20:13;19.50;77.40
59618;DHT22;45437;51.458;-2.568;2022-09-03T06:21:14;19.50;77.70
59618;DHT22;45437;51.458;-2.568;2022-09-03T06:22:15;19.40;77.80
59618;DHT22;45437;51.458;-2.568;2022-09-03T06:23:16;19.40;77.60
59618;DHT22;45437;51.458;-2.568;2022-09-03T06:24:19;19.40;77.90
59618;DHT22;45437;51.458;-2.568;2022-09-03T06:25:22;19.40;78.60
59618;DHT22;45437;51.458;-2.568;2022-09-03T06:26:24;19.40;77.80
59618;DHT22;45437;51.458;-2.568;2022-09-03T06:27:28;19.40;77.60
59618;DHT22;45437;51.458;-2.568;2022-09-03T06:28:30;19.40;77.70
59618;DHT22;45437;51.458;-2.568;2022-09-03T06:29:31;19.40;77.90
59618;DHT22;45437;51.458;-2.568;2022-09-03T06:30:31;19.40;78.00
59618;DHT22;45437;51.458;-2.568;2022-09-03T06:31:32;19.40;77.90
59618;DHT22;45437;51.458;-2.568;2022-09-03T06:32:43;19.40;78.00
59618;DHT22;45437;51.458;-2.568;2022-09-03T06:33:45;19.40;78.30
59618;DHT22;45437;51.458;-2.568;2022-09-03T06:34:46;19.40;78.30
59618;DHT22;45437;51.458;-2.568;2022-09-03T06:35:47;19.40;78.50
59618;DHT22;45437;51.458;-2.568;2022-09-03T06:36:48;19.40;78.50
59618;DHT22;45437;51.458;-2.568;2022-09-03T06:37:48;19.40;78.50
59618;DHT22;45437;51.458;-2.568;2022-09-03T06:38:53;19.40;78.40
59618;DHT22;45437;51.458;-2.568;2022-09-03T06:39:54;19.40;78.20
59618;DHT22;45437;51.458;-2.568;2022-09-03T06:40:59;19.40;78.40
59618;DHT22;45437;51.458;-2.568;2022-09-03T06:42:03;19.40;78.40
59618;DHT22;45437;51.458;-2.568;2022-09-03T06:43:31;19.40;78.40
59618;DHT22;45437;51.458;-2.568;2022-09-03T06:44:32;19.40;78.60
59618;DHT22;45437;51.458;-2.568;2022-09-03T06:45:33;19.40;78.50
59618;DHT22;45437;51.458;-2.568;2022-09-03T06:46:35;19.40;78.60
59618;DHT22;45437;51.458;-2.568;2022-09-03T06:47:38;19.40;78.60
59618;DHT22;45437;51.458;-2.568;2022-09-03T06:48:39;19.40;78.80
59618;DHT22;45437;51.458;-2.568;2022-09-03T06:49:40;19.40;78.80
59618;DHT22;45437;51.458;-2.568;2022-09-03T06:50:41;19.30;78.80
59618;DHT22;45437;51.458;-2.568;2022-09-03T06:51:42;19.40;79.30
59618;DHT22;45437;51.458;-2.568;2022-09-03T06:52:43;19.40;78.70
59618;DHT22;45437;51.458;-2.568;2022-09-03T06:53:51;19.30;78.60
59618;DHT22;45437;51.458;-2.568;2022-09-03T06:54:53;19.30;78.80
59618;DHT22;45437;51.458;-2.568;2022-09-03T06:56:02;19.30;78.80
59618;DHT22;45437;51.458;-2.568;2022-09-03T06:57:03;19.30;78.80
59618;DHT22;45437;51.458;-2.568;2022-09-03T06:58:04;19.30;78.80
59618;DHT22;45437;51.458;-2.568;2022-09-03T06:59:10;19.30;79.00
59618;DHT22;45437;51.458;-2.568;2022-09-03T07:00:12;19.30;78.80
59618;DHT22;45437;51.458;-2.568;2022-09-03T07:01:18;19.30;78.50
59618;DHT22;45437;51.458;-2.568;2022-09-03T07:02:19;19.30;78.80
59618;DHT22;45437;51.458;-2.568;2022-09-03T07:03:22;19.30;78.90
59618;DHT22;45437;51.458;-2.568;2022-09-03T07:04:23;19.30;79.10
59618;DHT22;45437;51.458;-2.568;2022-09-03T07:05:24;19.20;79.10
59618;DHT22;45437;51.458;-2.568;2022-09-03T07:06:30;19.20;79.10
59618;DHT22;45437;51.458;-2.568;2022-09-03T07:07:31;19.20;79.10
59618;DHT22;45437;51.458;-2.568;2022-09-03T07:08:32;19.20;79.00
59618;DHT22;45437;51.458;-2.568;2022-09-03T07:09:33;19.30;79.00
59618;DHT22;45437;51.458;-2.568;2022-09-03T07:10:38;19.30;78.90
59618;DHT22;45437;51.458;-2.568;2022-09-03T07:11:39;19.30;78.80
59618;DHT22;45437;51.458;-2.568;2022-09-03T07:15:01;19.30;79.00
59618;DHT22;45437;51.458;-2.568;2022-09-03T07:16:05;19.30;78.80
59618;DHT22;45437;51.458;-2.568;2022-09-03T07:17:06;19.30;78.90
59618;DHT22;45437;51.458;-2.568;2022-09-03T07:18:07;19.20;79.10
59618;DHT22;45437;51.458;-2.568;2022-09-03T07:19:08;19.20;79.10
59618;DHT22;45437;51.458;-2.568;2022-09-03T07:20:09;19.20;78.90
59618;DHT22;45437;51.458;-2.568;2022-09-03T07:21:12;19.30;78.90
59618;DHT22;45437;51.458;-2.568;2022-09-03T07:22:13;19.30;78.80
59618;DHT22;45437;51.458;-2.568;2022-09-03T07:23:14;19.30;78.90
59618;DHT22;45437;51.458;-2.568;2022-09-03T07:24:16;19.30;78.80
59618;DHT22;45437;51.458;-2.568;2022-09-03T07:25:17;19.30;78.90
59618;DHT22;45437;51.458;-2.568;2022-09-03T07:26:26;19.30;78.90
59618;DHT22;45437;51.458;-2.568;2022-09-03T07:27:27;19.30;79.00
59618;DHT22;45437;51.458;-2.568;2022-09-03T07:28:29;19.30;79.00
59618;DHT22;45437;51.458;-2.568;2022-09-03T07:29:31;19.30;79.00
59618;DHT22;45437;51.458;-2.568;2022-09-03T07:30:32;19.20;78.80
59618;DHT22;45437;51.458;-2.568;2022-09-03T07:31:35;19.30;78.80